This is the latest recevied weather packets stored in our database for station/object N3AVN. If no packets are shown the sender has not sent any weather packets the latest 10 day(s).
| Time | Temp. | Humidity | Pressure | Rain* | Wind** | Luminosity | Snow |
|---|---|---|---|---|---|---|---|
| 1777473757 | 16.11° C | 55% | 1013.7 hPa | 0 mm | - | 658 W/m² | - |
| 1777473453 | 15° C | 59% | 1013.7 hPa | 0 mm | - | 664 W/m² | - |
| 1777473149 | 15° C | 58% | 1013.7 hPa | 0 mm | - | 730 W/m² | - |
| 1777472846 | 15.56° C | 57% | 1013.9 hPa | 0 mm | - | 666 W/m² | - |
| 1777472542 | 15.56° C | 58% | 1014 hPa | 0 mm | - | 744 W/m² | - |
| 1777472239 | 14.44° C | 60% | 1013.8 hPa | 0 mm | - | 754 W/m² | - |
| 1777471935 | 13.33° C | 62% | 1014 hPa | 0 mm | - | 692 W/m² | - |
| 1777471632 | 13.33° C | 64% | 1014.2 hPa | 0 mm | - | 623 W/m² | - |
| 1777471328 | 13.89° C | 63% | 1014.4 hPa | 0 mm | - | 663 W/m² | - |
| 1777471024 | 13.89° C | 63% | 1014.5 hPa | 0 mm | - | 621 W/m² | - |
| 1777470722 | 13.89° C | 63% | 1014.9 hPa | 0 mm | - | 524 W/m² | - |
| 1777470418 | 12.22° C | 66% | 1014.8 hPa | 0 mm | - | 549 W/m² | - |
| 1777470114 | 13.33° C | 64% | 1015.1 hPa | 0 mm | - | 672 W/m² | - |
| 1777469810 | 12.22° C | 67% | 1015 hPa | 0 mm | - | 602 W/m² | - |
| 1777469506 | 13.89° C | 62% | 1015.1 hPa | 0 mm | - | 552 W/m² | - |
| 1777469201 | 13.33° C | 63% | 1015.2 hPa | 0 mm | - | 582 W/m² | - |
| 1777468900 | 12.22° C | 66% | 1015.3 hPa | 0 mm | - | 432 W/m² | - |
| 1777468598 | 12.78° C | 67% | 1015.3 hPa | 0 mm | - | 426 W/m² | - |
| 1777468294 | 12.78° C | 67% | 1015.5 hPa | 0 mm | - | 458 W/m² | - |
| 1777467990 | 12.78° C | 65% | 1014.9 hPa | 0 mm | - | 362 W/m² | - |
| 1777467687 | 13.89° C | 63% | 1015.2 hPa | 0 mm | - | 379 W/m² | - |
| 1777467382 | 11.67° C | 67% | 1015.2 hPa | 0 mm | - | 352 W/m² | - |
| 1777467078 | 12.78° C | 66% | 1015 hPa | 0 mm | - | 314 W/m² | - |
| 1777466770 | 12.22° C | 65% | 1015.1 hPa | 0 mm | - | 325 W/m² | - |
| 1777466467 | 13.33° C | 62% | 1015.5 hPa | 0 mm | - | 257 W/m² | - |
* Rain latest hour (hover to see other rain measurements)
** Current wind speed in m/s (hover to see current wind gust speed)